sensor_id;sensor_type;location;lat;lon;timestamp;temperature;humidity
949;DHT22;461;51.436;7.312;2023-03-23T03:47:09;13.10;99.90
949;DHT22;461;51.436;7.312;2023-03-23T03:49:34;13.20;99.90
949;DHT22;461;51.436;7.312;2023-03-23T03:52:01;13.10;99.90
949;DHT22;461;51.436;7.312;2023-03-23T03:54:27;13.00;99.90
949;DHT22;461;51.436;7.312;2023-03-23T03:56:53;13.10;99.90
949;DHT22;461;51.436;7.312;2023-03-23T03:59:23;13.10;99.90
949;DHT22;461;51.436;7.312;2023-03-23T04:01:49;13.00;99.90
949;DHT22;461;51.436;7.312;2023-03-23T04:04:20;13.00;99.90
949;DHT22;461;51.436;7.312;2023-03-23T04:06:47;13.00;99.90
949;DHT22;461;51.436;7.312;2023-03-23T04:09:14;13.10;99.90
949;DHT22;461;51.436;7.312;2023-03-23T04:11:40;13.10;99.90
949;DHT22;461;51.436;7.312;2023-03-23T04:14:06;13.10;99.90
949;DHT22;461;51.436;7.312;2023-03-23T04:16:32;13.20;99.90
949;DHT22;461;51.436;7.312;2023-03-23T04:19:00;13.20;99.90
949;DHT22;461;51.436;7.312;2023-03-23T04:21:26;13.30;99.90
949;DHT22;461;51.436;7.312;2023-03-23T04:23:57;13.30;99.90
949;DHT22;461;51.436;7.312;2023-03-23T04:26:27;13.20;99.90
949;DHT22;461;51.436;7.312;2023-03-23T04:28:56;13.20;99.90
949;DHT22;461;51.436;7.312;2023-03-23T04:31:22;13.20;99.90
949;DHT22;461;51.436;7.312;2023-03-23T04:33:51;13.40;99.90
949;DHT22;461;51.436;7.312;2023-03-23T04:36:18;13.30;99.90
949;DHT22;461;51.436;7.312;2023-03-23T04:38:44;13.30;99.90
949;DHT22;461;51.436;7.312;2023-03-23T04:41:10;13.40;99.90
949;DHT22;461;51.436;7.312;2023-03-23T04:43:36;13.30;99.90
949;DHT22;461;51.436;7.312;2023-03-23T04:46:08;13.40;99.90
949;DHT22;461;51.436;7.312;2023-03-23T04:48:36;13.30;99.90
949;DHT22;461;51.436;7.312;2023-03-23T04:51:05;13.30;99.90
949;DHT22;461;51.436;7.312;2023-03-23T04:53:31;13.30;99.90
949;DHT22;461;51.436;7.312;2023-03-23T04:55:57;13.30;99.90
949;DHT22;461;51.436;7.312;2023-03-23T04:58:23;13.30;99.90
949;DHT22;461;51.436;7.312;2023-03-23T05:00:50;13.30;99.90
949;DHT22;461;51.436;7.312;2023-03-23T05:03:20;13.40;99.90
949;DHT22;461;51.436;7.312;2023-03-23T05:05:46;13.40;99.90
949;DHT22;461;51.436;7.312;2023-03-23T05:08:18;13.40;99.90
949;DHT22;461;51.436;7.312;2023-03-23T05:10:50;13.30;99.90
949;DHT22;461;51.436;7.312;2023-03-23T05:13:16;13.40;99.90
949;DHT22;461;51.436;7.312;2023-03-23T05:15:42;13.40;99.90
949;DHT22;461;51.436;7.312;2023-03-23T05:18:08;13.40;99.90
949;DHT22;461;51.436;7.312;2023-03-23T05:20:35;13.50;99.90
949;DHT22;461;51.436;7.312;2023-03-23T05:23:01;13.50;99.90
949;DHT22;461;51.436;7.312;2023-03-23T05:25:27;13.40;99.90
949;DHT22;461;51.436;7.312;2023-03-23T05:27:53;13.40;99.90
949;DHT22;461;51.436;7.312;2023-03-23T05:30:20;13.40;99.90
949;DHT22;461;51.436;7.312;2023-03-23T05:32:47;13.40;99.90
949;DHT22;461;51.436;7.312;2023-03-23T05:35:17;13.40;99.90
949;DHT22;461;51.436;7.312;2023-03-23T05:37:43;13.40;99.90
949;DHT22;461;51.436;7.312;2023-03-23T05:40:13;13.40;99.90
949;DHT22;461;51.436;7.312;2023-03-23T05:42:39;13.50;99.90
949;DHT22;461;51.436;7.312;2023-03-23T05:45:10;13.50;99.90
949;DHT22;461;51.436;7.312;2023-03-23T05:47:39;13.50;99.90
949;DHT22;461;51.436;7.312;2023-03-23T05:50:07;13.60;99.90
949;DHT22;461;51.436;7.312;2023-03-23T05:52:34;13.60;99.90
949;DHT22;461;51.436;7.312;2023-03-23T05:55:04;13.70;99.90
949;DHT22;461;51.436;7.312;2023-03-23T05:57:30;13.70;99.90
949;DHT22;461;51.436;7.312;2023-03-23T05:59:57;13.70;99.90
949;DHT22;461;51.436;7.312;2023-03-23T06:02:24;13.60;99.90
949;DHT22;461;51.436;7.312;2023-03-23T06:04:53;13.60;99.90
949;DHT22;461;51.436;7.312;2023-03-23T06:07:23;13.60;99.90
949;DHT22;461;51.436;7.312;2023-03-23T06:09:50;13.60;99.90
949;DHT22;461;51.436;7.312;2023-03-23T06:12:16;13.80;99.90
949;DHT22;461;51.436;7.312;2023-03-23T06:14:46;13.80;99.90
949;DHT22;461;51.436;7.312;2023-03-23T06:17:12;13.70;99.90
949;DHT22;461;51.436;7.312;2023-03-23T06:19:38;13.80;99.90
949;DHT22;461;51.436;7.312;2023-03-23T06:22:04;13.80;99.90
949;DHT22;461;51.436;7.312;2023-03-23T06:24:30;13.80;99.90
949;DHT22;461;51.436;7.312;2023-03-23T06:26:58;13.80;99.90
949;DHT22;461;51.436;7.312;2023-03-23T06:29:24;13.80;99.90
949;DHT22;461;51.436;7.312;2023-03-23T06:31:55;13.80;99.90
949;DHT22;461;51.436;7.312;2023-03-23T06:34:21;13.80;99.90
949;DHT22;461;51.436;7.312;2023-03-23T06:36:47;13.70;99.90
949;DHT22;461;51.436;7.312;2023-03-23T06:39:13;13.80;99.90
949;DHT22;461;51.436;7.312;2023-03-23T06:41:39;13.80;99.90
949;DHT22;461;51.436;7.312;2023-03-23T06:44:05;13.90;99.90
949;DHT22;461;51.436;7.312;2023-03-23T06:46:33;13.90;99.90
949;DHT22;461;51.436;7.312;2023-03-23T06:48:59;13.90;99.90
949;DHT22;461;51.436;7.312;2023-03-23T06:51:25;14.00;99.90
949;DHT22;461;51.436;7.312;2023-03-23T06:53:51;14.00;99.90
949;DHT22;461;51.436;7.312;2023-03-23T06:56:17;14.10;99.90
949;DHT22;461;51.436;7.312;2023-03-23T06:58:43;14.00;99.90
949;DHT22;461;51.436;7.312;2023-03-23T07:01:11;14.10;99.90
949;DHT22;461;51.436;7.312;2023-03-23T07:03:36;14.10;99.90
949;DHT22;461;51.436;7.312;2023-03-23T07:06:03;14.00;99.90
949;DHT22;461;51.436;7.312;2023-03-23T07:08:29;14.10;99.90
949;DHT22;461;51.436;7.312;2023-03-23T07:10:55;14.10;99.90
949;DHT22;461;51.436;7.312;2023-03-23T07:13:22;14.20;99.90
949;DHT22;461;51.436;7.312;2023-03-23T07:16:04;14.10;99.90
949;DHT22;461;51.436;7.312;2023-03-23T07:18:32;14.20;99.90
949;DHT22;461;51.436;7.312;2023-03-23T07:20:59;14.20;99.90
949;DHT22;461;51.436;7.312;2023-03-23T07:23:42;14.30;99.90
949;DHT22;461;51.436;7.312;2023-03-23T07:26:22;14.30;99.90
949;DHT22;461;51.436;7.312;2023-03-23T07:28:50;14.30;99.90
949;DHT22;461;51.436;7.312;2023-03-23T07:31:19;14.30;99.90
949;DHT22;461;51.436;7.312;2023-03-23T07:33:55;14.30;99.90
949;DHT22;461;51.436;7.312;2023-03-23T07:36:23;14.40;99.90
949;DHT22;461;51.436;7.312;2023-03-23T07:38:51;14.40;99.90
949;DHT22;461;51.436;7.312;2023-03-23T07:41:39;14.40;99.90
949;DHT22;461;51.436;7.312;2023-03-23T08:44:27;15.00;99.90
949;DHT22;461;51.436;7.312;2023-03-23T08:46:54;15.10;99.90
949;DHT22;461;51.436;7.312;2023-03-23T08:49:27;15.00;99.90
949;DHT22;461;51.436;7.312;2023-03-23T08:51:53;15.00;99.90
949;DHT22;461;51.436;7.312;2023-03-23T09:32:21;15.50;99.90
949;DHT22;461;51.436;7.312;2023-03-23T10:05:50;15.90;99.90
949;DHT22;461;51.436;7.312;2023-03-23T10:08:23;15.70;99.90
949;DHT22;461;51.436;7.312;2023-03-23T10:11:25;15.70;99.90
949;DHT22;461;51.436;7.312;2023-03-23T18:19:47;15.00;99.90
949;DHT22;461;51.436;7.312;2023-03-23T18:22:45;14.90;99.90
949;DHT22;461;51.436;7.312;2023-03-23T18:25:38;14.90;99.90
949;DHT22;461;51.436;7.312;2023-03-23T18:28:04;14.90;99.90
949;DHT22;461;51.436;7.312;2023-03-23T18:30:47;14.80;99.90
949;DHT22;461;51.436;7.312;2023-03-23T18:33:23;14.80;99.90
949;DHT22;461;51.436;7.312;2023-03-23T18:35:58;14.80;99.90
949;DHT22;461;51.436;7.312;2023-03-23T18:41:47;14.80;99.90
949;DHT22;461;51.436;7.312;2023-03-23T18:44:34;14.80;99.90
949;DHT22;461;51.436;7.312;2023-03-23T18:50:21;14.70;99.90
949;DHT22;461;51.436;7.312;2023-03-23T18:52:52;14.60;99.90
949;DHT22;461;51.436;7.312;2023-03-23T18:55:18;14.60;99.90
949;DHT22;461;51.436;7.312;2023-03-23T18:57:44;14.50;99.90
949;DHT22;461;51.436;7.312;2023-03-23T19:00:15;14.50;99.90
949;DHT22;461;51.436;7.312;2023-03-23T19:02:50;14.50;99.90
949;DHT22;461;51.436;7.312;2023-03-23T19:05:19;14.50;99.90
949;DHT22;461;51.436;7.312;2023-03-23T19:20:40;14.40;99.90
949;DHT22;461;51.436;7.312;2023-03-23T19:23:11;14.30;99.90
949;DHT22;461;51.436;7.312;2023-03-23T19:25:43;14.30;99.90
949;DHT22;461;51.436;7.312;2023-03-23T19:28:23;14.30;99.90
949;DHT22;461;51.436;7.312;2023-03-23T19:31:07;14.30;99.90
949;DHT22;461;51.436;7.312;2023-03-23T19:33:40;14.40;99.90
949;DHT22;461;51.436;7.312;2023-03-23T19:36:12;14.40;99.90
949;DHT22;461;51.436;7.312;2023-03-23T19:38:47;14.30;99.90
949;DHT22;461;51.436;7.312;2023-03-23T19:44:18;14.30;99.90
949;DHT22;461;51.436;7.312;2023-03-23T19:47:00;14.20;99.90
949;DHT22;461;51.436;7.312;2023-03-23T19:49:37;14.20;99.90
949;DHT22;461;51.436;7.312;2023-03-23T19:52:21;14.20;99.90
949;DHT22;461;51.436;7.312;2023-03-23T19:55:02;14.20;99.90
949;DHT22;461;51.436;7.312;2023-03-23T19:57:49;14.20;99.90
949;DHT22;461;51.436;7.312;2023-03-23T20:00:33;14.10;99.90
949;DHT22;461;51.436;7.312;2023-03-23T20:03:15;14.20;99.90
949;DHT22;461;51.436;7.312;2023-03-23T20:05:44;14.10;99.90
949;DHT22;461;51.436;7.312;2023-03-23T20:08:16;14.10;99.90
949;DHT22;461;51.436;7.312;2023-03-23T20:10:48;14.10;99.90
949;DHT22;461;51.436;7.312;2023-03-23T20:13:23;14.20;99.90
949;DHT22;461;51.436;7.312;2023-03-23T20:15:58;14.20;99.90
949;DHT22;461;51.436;7.312;2023-03-23T20:18:37;14.10;99.90
949;DHT22;461;51.436;7.312;2023-03-23T20:21:39;14.10;99.90
949;DHT22;461;51.436;7.312;2023-03-23T20:27:47;14.10;99.90
949;DHT22;461;51.436;7.312;2023-03-23T20:30:20;14.10;99.90
949;DHT22;461;51.436;7.312;2023-03-23T20:54:05;14.20;99.90
949;DHT22;461;51.436;7.312;2023-03-23T21:00:26;14.30;99.90
949;DHT22;461;51.436;7.312;2023-03-23T21:13:24;14.30;99.90
949;DHT22;461;51.436;7.312;2023-03-23T21:16:14;14.30;99.90
949;DHT22;461;51.436;7.312;2023-03-23T21:19:02;14.40;99.90
949;DHT22;461;51.436;7.312;2023-03-23T21:21:57;14.30;99.90
949;DHT22;461;51.436;7.312;2023-03-23T21:24:43;14.40;99.90
949;DHT22;461;51.436;7.312;2023-03-23T21:27:26;14.40;99.90
949;DHT22;461;51.436;7.312;2023-03-23T21:30:11;14.50;99.90
949;DHT22;461;51.436;7.312;2023-03-23T21:36:06;14.50;99.90
949;DHT22;461;51.436;7.312;2023-03-23T21:39:02;14.50;99.90
949;DHT22;461;51.436;7.312;2023-03-23T21:42:14;14.50;99.90
949;DHT22;461;51.436;7.312;2023-03-23T21:44:59;14.60;99.90
949;DHT22;461;51.436;7.312;2023-03-23T21:47:29;14.60;99.90
949;DHT22;461;51.436;7.312;2023-03-23T21:49:58;14.50;99.90
949;DHT22;461;51.436;7.312;2023-03-23T21:52:25;14.40;99.90
949;DHT22;461;51.436;7.312;2023-03-23T21:54:54;14.50;99.90
949;DHT22;461;51.436;7.312;2023-03-23T21:57:27;14.40;99.90
949;DHT22;461;51.436;7.312;2023-03-23T22:00:09;14.30;99.90
949;DHT22;461;51.436;7.312;2023-03-23T22:02:40;14.30;99.90
949;DHT22;461;51.436;7.312;2023-03-23T22:05:09;14.30;99.90
949;DHT22;461;51.436;7.312;2023-03-23T22:07:56;14.30;99.90
949;DHT22;461;51.436;7.312;2023-03-23T22:10:29;14.10;99.90
949;DHT22;461;51.436;7.312;2023-03-23T22:13:07;14.00;99.90
949;DHT22;461;51.436;7.312;2023-03-23T22:15:49;14.00;99.90
949;DHT22;461;51.436;7.312;2023-03-23T22:18:53;13.90;99.90
949;DHT22;461;51.436;7.312;2023-03-23T22:21:20;13.90;99.90
949;DHT22;461;51.436;7.312;2023-03-23T22:23:47;13.90;99.90
949;DHT22;461;51.436;7.312;2023-03-23T22:26:13;13.70;99.90
949;DHT22;461;51.436;7.312;2023-03-23T22:28:41;13.60;99.90
949;DHT22;461;51.436;7.312;2023-03-23T22:31:12;13.60;99.90
949;DHT22;461;51.436;7.312;2023-03-23T22:33:38;13.60;99.90
949;DHT22;461;51.436;7.312;2023-03-23T22:36:05;13.80;99.90
949;DHT22;461;51.436;7.312;2023-03-23T22:38:33;13.60;99.90
949;DHT22;461;51.436;7.312;2023-03-23T22:40:59;13.40;99.90
949;DHT22;461;51.436;7.312;2023-03-23T22:43:27;13.40;99.90
949;DHT22;461;51.436;7.312;2023-03-23T22:45:53;13.20;99.90
949;DHT22;461;51.436;7.312;2023-03-23T22:48:21;13.40;99.90
949;DHT22;461;51.436;7.312;2023-03-23T22:50:47;13.20;99.90
949;DHT22;461;51.436;7.312;2023-03-23T22:53:15;13.30;99.90
949;DHT22;461;51.436;7.312;2023-03-23T22:55:42;13.20;99.90
949;DHT22;461;51.436;7.312;2023-03-23T22:58:09;13.10;99.90
949;DHT22;461;51.436;7.312;2023-03-23T23:00:39;13.20;99.90
949;DHT22;461;51.436;7.312;2023-03-23T23:03:07;13.20;99.90
949;DHT22;461;51.436;7.312;2023-03-23T23:05:34;13.10;99.90
949;DHT22;461;51.436;7.312;2023-03-23T23:08:05;13.20;99.90
949;DHT22;461;51.436;7.312;2023-03-23T23:10:33;13.10;99.90
949;DHT22;461;51.436;7.312;2023-03-23T23:13:00;13.10;99.90
